Alder, Washington
Current Conditions -  °F | °C
As of 2:58 PM on Monday 20 Oct 2014 (Local Time) from KGRF Reporting Station
Drizzle Drizzle  
Wind Chill: 61°   Ceiling: 9500
Heat Index: 61°   Visibility: 10mi
Dew Point: 56°   Wind: 6mph
Humidity: 85%   Direction: 180°S
Pressure: 29.76"   Gusts: NA
Location:  46.8687°N, 122.208°W
Report Text: KGRF 202158Z AUTO 18005KT 10SM DZ FEW043 SCT055 BKN095 16/14 A2976 RMK AO2 RAE2102DZB2102 SLP081 P0000 T01600135 $
Loading
Personal Weather Stations






























Interactive Weather Map New forecast layout! Learn more

10-Day Weather Forecast

Advertisements
Track Severe Weather on mobile